createdAt,value
2019-05-22T00:00:03.192Z,0.00
2019-05-22T00:01:03.180Z,0.00
2019-05-22T00:02:03.167Z,0.00
2019-05-22T00:03:03.538Z,0.00
2019-05-22T00:04:03.150Z,0.00
2019-05-22T00:05:03.176Z,0.00
2019-05-22T00:06:03.123Z,0.00
2019-05-22T00:07:03.135Z,0.00
2019-05-22T00:08:03.145Z,0.00
2019-05-22T00:09:03.094Z,0.00
2019-05-22T00:10:03.081Z,0.00
2019-05-22T00:11:03.094Z,0.00
2019-05-22T00:12:03.110Z,0.00
2019-05-22T00:13:03.049Z,0.00
2019-05-22T00:14:03.049Z,0.00
2019-05-22T00:15:03.479Z,0.00
2019-05-22T00:16:03.013Z,0.00
2019-05-22T00:17:03.007Z,0.00
2019-05-22T00:18:02.996Z,0.00
2019-05-22T00:19:02.996Z,0.00
2019-05-22T00:20:02.979Z,0.00
2019-05-22T00:21:03.110Z,0.00
2019-05-22T00:22:02.948Z,0.00
2019-05-22T00:23:02.938Z,0.00
2019-05-22T00:24:02.940Z,0.00
2019-05-22T00:25:02.914Z,0.00
2019-05-22T00:26:02.941Z,0.00
2019-05-22T00:27:02.893Z,0.00
2019-05-22T00:28:02.881Z,0.00
2019-05-22T00:29:02.935Z,0.00
2019-05-22T00:30:02.871Z,0.00
2019-05-22T00:31:02.848Z,0.00
2019-05-22T00:32:02.836Z,0.00
2019-05-22T00:33:02.831Z,0.00
2019-05-22T00:34:02.828Z,0.00
2019-05-22T00:35:02.810Z,0.00
2019-05-22T00:36:02.805Z,0.00
2019-05-22T00:37:02.783Z,0.00
2019-05-22T00:38:02.852Z,0.00
2019-05-22T00:39:02.775Z,0.00
2019-05-22T00:40:02.755Z,0.00
2019-05-22T00:41:02.741Z,0.00
2019-05-22T00:42:02.728Z,0.00
2019-05-22T00:43:05.512Z,0.00
2019-05-22T00:44:03.718Z,0.00
2019-05-22T00:45:02.697Z,0.00
2019-05-22T00:46:02.686Z,0.00
2019-05-22T00:47:02.684Z,0.00
2019-05-22T00:48:02.669Z,0.00
2019-05-22T00:49:02.669Z,0.00
2019-05-22T00:50:02.639Z,0.00
2019-05-22T00:51:02.628Z,0.00
2019-05-22T00:52:02.628Z,0.00
2019-05-22T00:53:02.740Z,0.00
2019-05-22T00:54:02.623Z,0.00
2019-05-22T00:55:02.586Z,0.00
2019-05-22T00:56:02.577Z,0.00
2019-05-22T00:57:02.567Z,0.00
2019-05-22T00:58:02.553Z,0.00
2019-05-22T00:59:02.557Z,0.00
2019-05-22T01:00:02.529Z,0.00
2019-05-22T01:01:02.519Z,0.00
2019-05-22T01:02:02.509Z,0.00
2019-05-22T01:03:02.497Z,0.00
2019-05-22T01:04:02.523Z,0.00
2019-05-22T01:05:02.476Z,0.00
2019-05-22T01:06:02.464Z,0.00
2019-05-22T01:07:02.552Z,0.00
2019-05-22T01:08:02.455Z,0.00
2019-05-22T01:09:02.432Z,0.00
2019-05-22T01:10:03.386Z,0.00
2019-05-22T01:11:02.410Z,0.00
2019-05-22T01:12:02.898Z,0.00
2019-05-22T01:13:02.388Z,0.00
2019-05-22T01:14:02.375Z,0.00
2019-05-22T01:15:03.079Z,0.00
2019-05-22T01:16:02.358Z,0.00
2019-05-22T01:17:02.343Z,0.00
2019-05-22T01:18:02.334Z,0.00
2019-05-22T01:19:02.320Z,0.00
2019-05-22T01:20:02.328Z,0.00
2019-05-22T01:21:02.299Z,0.00
2019-05-22T01:22:02.298Z,0.00
2019-05-22T01:23:02.279Z,0.00
2019-05-22T01:24:02.266Z,0.00
2019-05-22T01:25:02.269Z,0.00
2019-05-22T01:26:02.244Z,0.00
2019-05-22T01:27:02.236Z,0.00
2019-05-22T01:28:02.229Z,0.00
2019-05-22T01:29:02.216Z,0.00
2019-05-22T01:30:02.292Z,0.00
2019-05-22T01:31:02.194Z,0.00
2019-05-22T01:32:02.180Z,0.00
2019-05-22T01:33:02.167Z,0.00
2019-05-22T01:34:02.158Z,0.00
2019-05-22T01:35:02.158Z,0.00
2019-05-22T01:36:02.145Z,0.00
2019-05-22T01:37:02.123Z,0.00
2019-05-22T01:38:02.112Z,0.00
2019-05-22T01:39:02.124Z,0.00
2019-05-22T01:40:02.106Z,0.00
2019-05-22T01:41:02.143Z,0.00
2019-05-22T01:42:02.069Z,0.00
2019-05-22T01:43:02.056Z,0.00
2019-05-22T01:44:02.051Z,0.00
2019-05-22T01:45:06.526Z,0.00
2019-05-22T01:46:02.024Z,0.00
2019-05-22T01:47:02.016Z,0.00
2019-05-22T01:48:02.009Z,0.00
2019-05-22T01:49:02.068Z,0.00
2019-05-22T01:50:02.003Z,0.00
2019-05-22T01:51:02.069Z,0.00
2019-05-22T01:52:01.959Z,0.00
2019-05-22T01:53:01.947Z,0.00
2019-05-22T01:54:01.936Z,0.00
2019-05-22T01:55:01.943Z,0.00
2019-05-22T01:56:01.938Z,0.00
2019-05-22T01:57:01.903Z,0.00
2019-05-22T01:58:01.892Z,0.00
2019-05-22T01:59:01.884Z,0.00
2019-05-22T02:00:01.902Z,0.00
2019-05-22T02:01:01.869Z,0.00
2019-05-22T02:02:01.921Z,0.00
2019-05-22T02:03:01.838Z,0.00
2019-05-22T02:04:01.827Z,0.00
2019-05-22T02:05:01.827Z,0.00
2019-05-22T02:06:01.844Z,0.00
2019-05-22T02:07:01.793Z,0.00
2019-05-22T02:08:01.806Z,0.00
2019-05-22T02:09:01.773Z,0.00
2019-05-22T02:10:01.842Z,0.00
2019-05-22T02:11:01.766Z,0.00
2019-05-22T02:12:01.740Z,0.00
2019-05-22T02:13:01.729Z,0.00
2019-05-22T02:14:01.716Z,0.00
2019-05-22T02:15:01.706Z,0.00
2019-05-22T02:16:01.709Z,0.00
2019-05-22T02:17:01.683Z,0.00
2019-05-22T02:18:01.674Z,0.00
2019-05-22T02:19:01.662Z,0.00
2019-05-22T02:20:01.685Z,0.00
2019-05-22T02:21:01.653Z,0.00
2019-05-22T02:22:01.630Z,0.00
2019-05-22T02:23:01.617Z,0.00
2019-05-22T02:24:01.608Z,0.00
2019-05-22T02:25:01.599Z,0.00
2019-05-22T02:26:01.602Z,0.00
2019-05-22T02:27:01.850Z,0.00
2019-05-22T02:28:01.563Z,0.00
2019-05-22T02:29:01.552Z,0.00
2019-05-22T02:30:01.556Z,0.00
2019-05-22T02:31:01.553Z,0.00
2019-05-22T02:32:01.527Z,0.00
2019-05-22T02:33:01.510Z,0.00
2019-05-22T02:34:01.506Z,0.00
2019-05-22T02:35:01.486Z,0.00
2019-05-22T02:36:01.505Z,0.00
2019-05-22T02:37:01.465Z,0.00
2019-05-22T02:38:01.452Z,0.00
2019-05-22T02:39:01.448Z,0.00
2019-05-22T02:40:01.511Z,0.00
2019-05-22T02:41:01.434Z,0.00
2019-05-22T02:42:01.409Z,0.00
2019-05-22T02:43:01.412Z,0.00
2019-05-22T02:44:01.395Z,0.00
2019-05-22T02:45:01.379Z,0.00
2019-05-22T02:46:01.379Z,0.00
2019-05-22T02:47:18.311Z,0.00
2019-05-22T02:48:02.343Z,0.00
2019-05-22T02:49:01.334Z,0.00
2019-05-22T02:50:01.339Z,0.00
2019-05-22T02:51:01.333Z,0.00
2019-05-22T02:52:01.328Z,0.00
2019-05-22T02:53:01.291Z,0.00
2019-05-22T02:54:01.277Z,0.00
2019-05-22T02:55:01.270Z,0.00
2019-05-22T02:56:01.256Z,0.00
2019-05-22T02:57:01.264Z,0.00
2019-05-22T02:58:01.232Z,0.00
2019-05-22T02:59:01.230Z,0.00
2019-05-22T03:00:01.272Z,0.00
2019-05-22T03:01:01.213Z,0.00
2019-05-22T03:02:01.208Z,0.00
2019-05-22T03:03:01.177Z,0.00
2019-05-22T03:04:01.171Z,0.00
2019-05-22T03:05:01.157Z,0.00
2019-05-22T03:06:01.166Z,0.00
2019-05-22T03:07:01.151Z,0.00
2019-05-22T03:08:01.125Z,0.00
2019-05-22T03:09:01.134Z,0.00
2019-05-22T03:10:01.182Z,0.00
2019-05-22T03:11:01.103Z,0.00
2019-05-22T03:12:01.101Z,0.00
2019-05-22T03:13:01.070Z,0.00
2019-05-22T03:14:01.062Z,0.00
2019-05-22T03:15:01.048Z,0.00
2019-05-22T03:16:01.036Z,0.00
2019-05-22T03:17:01.039Z,0.00
2019-05-22T03:18:01.013Z,0.00
2019-05-22T03:19:08.760Z,0.00
2019-05-22T03:20:02.045Z,0.00
2019-05-22T03:21:00.980Z,0.00
2019-05-22T03:22:00.984Z,0.00
2019-05-22T03:23:00.962Z,0.00
2019-05-22T03:24:00.949Z,0.00
2019-05-22T03:25:00.938Z,0.00
2019-05-22T03:26:00.924Z,0.00
2019-05-22T03:27:00.915Z,0.00
2019-05-22T03:28:00.916Z,4.00
2019-05-22T03:29:00.894Z,4.00
2019-05-22T03:30:00.890Z,4.00
2019-05-22T03:31:00.873Z,4.00
2019-05-22T03:32:00.859Z,4.00
2019-05-22T03:33:00.889Z,4.00
2019-05-22T03:34:00.851Z,4.00
2019-05-22T03:35:00.828Z,4.00
2019-05-22T03:36:00.817Z,8.00
2019-05-22T03:37:00.805Z,4.00
2019-05-22T03:38:00.810Z,4.00
2019-05-22T03:39:00.783Z,4.00
2019-05-22T03:40:00.770Z,4.00
2019-05-22T03:41:00.761Z,8.00
2019-05-22T03:42:00.750Z,8.00
2019-05-22T03:43:00.753Z,8.00
2019-05-22T03:44:00.732Z,8.00
2019-05-22T03:45:00.717Z,8.00
2019-05-22T03:46:00.709Z,8.00
2019-05-22T03:47:00.696Z,8.00
2019-05-22T03:48:00.700Z,8.00
2019-05-22T03:49:00.680Z,8.00
2019-05-22T03:50:00.665Z,12.00
2019-05-22T03:51:00.665Z,12.00
2019-05-22T03:52:00.643Z,12.00
2019-05-22T03:53:00.647Z,12.00
2019-05-22T03:54:00.618Z,12.00
2019-05-22T03:55:00.610Z,12.00
2019-05-22T03:56:00.597Z,12.00
2019-05-22T03:57:00.584Z,12.00
2019-05-22T03:58:00.588Z,12.00
2019-05-22T03:59:00.567Z,12.00
2019-05-22T04:00:00.557Z,12.00
2019-05-22T04:01:00.548Z,12.00
2019-05-22T04:02:00.534Z,16.00
2019-05-22T04:03:00.537Z,16.00
2019-05-22T04:04:00.508Z,16.00
2019-05-22T04:05:00.507Z,16.00
2019-05-22T04:06:00.486Z,16.00
2019-05-22T04:07:00.475Z,24.00
2019-05-22T04:08:00.475Z,24.00
2019-05-22T04:09:00.454Z,28.00
2019-05-22T04:10:00.447Z,32.00
2019-05-22T04:11:00.436Z,32.00
2019-05-22T04:12:00.437Z,36.00
2019-05-22T04:13:00.429Z,32.00
2019-05-22T04:14:00.399Z,36.00
2019-05-22T04:15:00.387Z,36.00
2019-05-22T04:16:00.377Z,40.00
2019-05-22T04:17:00.365Z,56.00
2019-05-22T04:18:00.368Z,72.00
2019-05-22T04:19:00.344Z,72.00
2019-05-22T04:20:00.337Z,80.00
2019-05-22T04:21:00.340Z,76.00
2019-05-22T04:22:00.313Z,76.00
2019-05-22T04:23:00.313Z,72.00
2019-05-22T04:24:00.290Z,68.00
2019-05-22T04:25:00.277Z,80.00
2019-05-22T04:26:00.267Z,76.00
2019-05-22T04:27:00.256Z,80.00
2019-05-22T04:28:00.263Z,84.00
2019-05-22T04:29:00.236Z,88.00
2019-05-22T04:30:00.223Z,84.00
2019-05-22T04:31:00.299Z,100.00
2019-05-22T04:32:00.203Z,92.00
2019-05-22T04:33:00.202Z,88.00
2019-05-22T04:34:00.181Z,80.00
2019-05-22T04:35:00.167Z,88.00
2019-05-22T04:36:00.156Z,92.00
2019-05-22T04:37:00.146Z,88.00
2019-05-22T04:38:00.150Z,108.00
2019-05-22T04:39:00.124Z,116.00
2019-05-22T04:40:00.127Z,116.00
2019-05-22T04:41:00.105Z,128.00
2019-05-22T04:42:00.091Z,132.00
2019-05-22T04:43:00.117Z,108.00
2019-05-22T04:44:00.073Z,112.00
2019-05-22T04:45:00.062Z,120.00
2019-05-22T04:46:00.061Z,136.00
2019-05-22T04:47:00.037Z,140.00
2019-05-22T04:48:00.026Z,152.00
2019-05-22T04:49:00.031Z,140.00
2019-05-22T04:50:07.642Z,156.00
2019-05-22T04:51:00.991Z,156.00
2019-05-22T04:51:59.980Z,132.00
2019-05-22T04:52:59.973Z,132.00
2019-05-22T04:53:59.973Z,148.00
2019-05-22T04:54:59.949Z,188.00
2019-05-22T04:55:59.937Z,164.00
2019-05-22T04:56:59.925Z,136.00
2019-05-22T04:57:59.917Z,176.00
2019-05-22T04:58:59.917Z,188.00
2019-05-22T04:59:59.893Z,208.00
2019-05-22T05:00:59.881Z,220.00
2019-05-22T05:01:59.873Z,228.00
2019-05-22T05:02:59.860Z,224.00
2019-05-22T05:03:59.864Z,228.00
2019-05-22T05:04:59.847Z,220.00
2019-05-22T05:05:59.827Z,216.00
2019-05-22T05:06:59.819Z,224.00
2019-05-22T05:07:59.804Z,236.00
2019-05-22T05:08:59.809Z,256.00
2019-05-22T05:09:59.783Z,264.00
2019-05-22T05:10:59.773Z,280.00
2019-05-22T05:11:59.760Z,308.00
2019-05-22T05:12:59.754Z,332.00
2019-05-22T05:13:59.754Z,332.00
2019-05-22T05:14:59.731Z,340.00
2019-05-22T05:15:59.716Z,344.00
2019-05-22T05:16:59.704Z,320.00
2019-05-22T05:17:59.698Z,296.00
2019-05-22T05:18:59.698Z,268.00
2019-05-22T05:19:59.671Z,252.00
2019-05-22T05:20:59.671Z,272.00
2019-05-22T05:21:59.669Z,268.00
2019-05-22T05:22:59.640Z,280.00
2019-05-22T05:23:59.641Z,280.00
2019-05-22T05:24:59.635Z,232.00
2019-05-22T05:25:59.623Z,220.00
2019-05-22T05:26:59.604Z,236.00
2019-05-22T05:27:59.585Z,256.00
2019-05-22T05:28:59.595Z,300.00
2019-05-22T05:29:59.564Z,304.00
2019-05-22T05:30:59.551Z,316.00
2019-05-22T05:31:59.563Z,316.00
2019-05-22T05:32:59.557Z,316.00
2019-05-22T05:33:59.608Z,316.00
2019-05-22T05:34:59.530Z,308.00
2019-05-22T05:35:59.496Z,260.00
2019-05-22T05:36:59.526Z,240.00
2019-05-22T05:37:59.474Z,276.00
2019-05-22T05:38:59.496Z,276.00
2019-05-22T05:39:59.454Z,280.00
2019-05-22T05:40:59.444Z,240.00
2019-05-22T05:41:59.431Z,260.00
2019-05-22T05:42:59.421Z,240.00
2019-05-22T05:43:59.413Z,248.00
2019-05-22T05:44:59.411Z,284.00
2019-05-22T05:45:59.391Z,312.00
2019-05-22T05:46:59.377Z,328.00
2019-05-22T05:47:59.368Z,328.00
2019-05-22T05:48:59.354Z,308.00
2019-05-22T05:49:59.359Z,300.00
2019-05-22T05:50:59.332Z,316.00
2019-05-22T05:51:59.321Z,332.00
2019-05-22T05:52:59.309Z,360.00
2019-05-22T05:53:59.301Z,352.00
2019-05-22T05:54:59.301Z,320.00
2019-05-22T05:55:59.277Z,316.00
2019-05-22T05:56:59.267Z,340.00
2019-05-22T05:57:59.255Z,388.00
2019-05-22T05:58:59.284Z,452.00
2019-05-22T05:59:59.249Z,508.00
2019-05-22T06:00:59.231Z,560.00
2019-05-22T06:01:59.210Z,628.00
2019-05-22T06:02:59.201Z,652.00
2019-05-22T06:03:59.189Z,648.00
2019-05-22T06:04:59.190Z,632.00
2019-05-22T06:05:59.167Z,632.00
2019-05-22T06:07:00.756Z,624.00
2019-05-22T06:07:59.147Z,664.00
2019-05-22T06:08:59.135Z,704.00
2019-05-22T06:09:59.143Z,704.00
2019-05-22T06:10:59.111Z,776.00
2019-05-22T06:11:59.101Z,748.00
2019-05-22T06:12:59.092Z,740.00
2019-05-22T06:13:59.080Z,744.00
2019-05-22T06:14:59.083Z,732.00
2019-05-22T06:15:59.060Z,676.00
2019-05-22T06:16:59.046Z,696.00
2019-05-22T06:17:59.034Z,592.00
2019-05-22T06:18:59.022Z,596.00
2019-05-22T06:19:59.034Z,624.00
2019-05-22T06:21:03.645Z,620.00
2019-05-22T06:21:59.989Z,560.00
2019-05-22T06:22:58.981Z,496.00
2019-05-22T06:23:58.979Z,472.00
2019-05-22T06:24:58.980Z,520.00
2019-05-22T06:25:58.948Z,564.00
2019-05-22T06:26:58.945Z,516.00
2019-05-22T06:27:58.924Z,440.00
2019-05-22T06:28:58.914Z,408.00
2019-05-22T06:29:58.926Z,412.00
2019-05-22T06:30:58.893Z,500.00
2019-05-22T06:31:58.885Z,596.00
2019-05-22T06:32:58.870Z,636.00
2019-05-22T06:33:58.858Z,568.00
2019-05-22T06:34:59.800Z,616.00
2019-05-22T06:35:58.837Z,720.00
2019-05-22T06:36:58.826Z,704.00
2019-05-22T06:37:58.816Z,632.00
2019-05-22T06:38:58.804Z,648.00
2019-05-22T06:39:58.806Z,628.00
2019-05-22T06:40:58.781Z,572.00
2019-05-22T06:41:58.773Z,520.00
2019-05-22T06:42:58.761Z,480.00
2019-05-22T06:43:58.754Z,468.00
2019-05-22T06:44:58.737Z,448.00
2019-05-22T06:45:58.740Z,436.00
2019-05-22T06:46:58.717Z,424.00
2019-05-22T06:47:58.706Z,412.00
2019-05-22T06:48:58.695Z,408.00
2019-05-22T06:49:58.713Z,388.00
2019-05-22T06:50:58.686Z,320.00
2019-05-22T06:51:58.662Z,312.00
2019-05-22T06:53:09.323Z,304.00
2019-05-22T06:53:59.639Z,332.00
2019-05-22T06:54:58.719Z,344.00
2019-05-22T06:55:58.632Z,320.00
2019-05-22T06:56:58.609Z,328.00
2019-05-22T06:57:58.601Z,312.00
2019-05-22T06:58:58.586Z,364.00
2019-05-22T07:00:12.398Z,352.00
2019-05-22T07:00:59.573Z,312.00
2019-05-22T07:02:01.416Z,332.00
2019-05-22T07:02:58.541Z,396.00
2019-05-22T07:03:58.533Z,404.00
2019-05-22T07:04:58.519Z,340.00
2019-05-22T07:05:58.523Z,380.00
2019-05-22T07:06:58.498Z,348.00
2019-05-22T07:07:58.485Z,300.00
2019-05-22T07:08:58.475Z,332.00
2019-05-22T07:09:58.469Z,352.00
2019-05-22T07:10:58.465Z,336.00
2019-05-22T07:11:58.446Z,316.00
2019-05-22T07:12:58.432Z,320.00
2019-05-22T07:13:58.421Z,352.00
2019-05-22T07:14:58.410Z,352.00
2019-05-22T07:15:58.417Z,360.00
2019-05-22T07:16:58.387Z,364.00
2019-05-22T07:17:58.377Z,392.00
2019-05-22T07:18:58.365Z,396.00
2019-05-22T07:19:58.355Z,368.00
2019-05-22T07:20:58.359Z,392.00
2019-05-22T07:21:58.345Z,436.00
2019-05-22T07:22:58.321Z,460.00
2019-05-22T07:23:58.335Z,548.00
2019-05-22T07:24:58.328Z,696.00
2019-05-22T07:25:58.305Z,720.00
2019-05-22T07:26:58.275Z,824.00
2019-05-22T07:27:58.271Z,812.00
2019-05-22T07:29:00.898Z,828.00
2019-05-22T07:29:59.245Z,876.00
2019-05-22T07:30:58.250Z,936.00
2019-05-22T07:32:01.659Z,1024.00
2019-05-22T07:32:58.211Z,1044.00
2019-05-22T07:33:58.199Z,1052.00
2019-05-22T07:34:58.193Z,1096.00
2019-05-22T07:36:15.901Z,1148.00
2019-05-22T07:36:59.165Z,1172.00
2019-05-22T07:37:58.155Z,1172.00
2019-05-22T07:38:58.150Z,1148.00
2019-05-22T07:39:58.136Z,1188.00
2019-05-22T07:40:58.135Z,1172.00
2019-05-22T07:41:58.111Z,1064.00
2019-05-22T07:42:58.122Z,980.00
2019-05-22T07:43:58.134Z,936.00
2019-05-22T07:44:58.079Z,924.00
2019-05-22T07:45:58.081Z,972.00
2019-05-22T07:46:58.065Z,1068.00
2019-05-22T07:47:58.046Z,1164.00
2019-05-22T07:48:58.035Z,1216.00
2019-05-22T07:49:58.025Z,1196.00
2019-05-22T07:50:58.031Z,1184.00
2019-05-22T07:52:01.782Z,1200.00
2019-05-22T07:52:57.992Z,1164.00
2019-05-22T07:53:57.980Z,1116.00
2019-05-22T07:54:57.969Z,1088.00
2019-05-22T07:55:57.974Z,1068.00
2019-05-22T07:56:57.947Z,1060.00
2019-05-22T07:57:57.937Z,1056.00
2019-05-22T07:58:59.072Z,1080.00
2019-05-22T07:59:57.918Z,1080.00
2019-05-22T08:00:57.967Z,1060.00
2019-05-22T08:01:57.893Z,996.00
2019-05-22T08:02:57.882Z,992.00
2019-05-22T08:03:57.871Z,924.00
2019-05-22T08:04:57.864Z,876.00
2019-05-22T08:05:57.872Z,880.00
2019-05-22T08:06:57.838Z,808.00
2019-05-22T08:07:57.826Z,740.00
2019-05-22T08:08:57.815Z,700.00
2019-05-22T08:09:57.807Z,680.00
2019-05-22T08:10:57.810Z,736.00
2019-05-22T08:11:57.782Z,888.00
2019-05-22T08:12:57.772Z,1032.00
2019-05-22T08:13:57.763Z,1100.00
2019-05-22T08:14:57.749Z,1172.00
2019-05-22T08:15:57.769Z,1244.00
2019-05-22T08:16:57.726Z,1348.00
2019-05-22T08:17:57.722Z,1332.00
2019-05-22T08:18:57.706Z,1436.00
2019-05-22T08:19:57.697Z,1436.00
2019-05-22T08:20:57.682Z,1452.00
2019-05-22T08:22:06.882Z,1464.00
2019-05-22T08:22:58.660Z,1548.00
2019-05-22T08:23:57.654Z,1616.00
2019-05-22T08:24:57.640Z,1584.00
2019-05-22T08:25:57.627Z,1580.00
2019-05-22T08:26:57.637Z,1700.00
2019-05-22T08:27:57.608Z,1828.00
2019-05-22T08:28:57.596Z,2040.00
2019-05-22T08:29:57.589Z,2208.00
2019-05-22T08:30:57.575Z,2240.00
2019-05-22T08:31:57.577Z,2208.00
2019-05-22T08:32:57.552Z,2248.00
2019-05-22T08:33:57.541Z,2212.00
2019-05-22T08:34:57.534Z,2208.00
2019-05-22T08:35:57.535Z,2296.00
2019-05-22T08:36:57.525Z,2200.00
2019-05-22T08:37:57.501Z,2272.00
2019-05-22T08:38:57.492Z,2232.00
2019-05-22T08:39:57.475Z,2200.00
2019-05-22T08:40:57.465Z,2280.00
2019-05-22T08:41:57.471Z,2392.00
2019-05-22T08:42:57.443Z,2328.00
2019-05-22T08:44:15.170Z,2216.00
2019-05-22T08:44:58.418Z,2296.00
2019-05-22T08:45:57.408Z,2628.00
2019-05-22T08:46:57.414Z,2952.00
2019-05-22T08:47:57.387Z,2940.00
2019-05-22T08:48:57.376Z,3264.00
2019-05-22T08:49:57.366Z,3040.00
2019-05-22T08:50:57.354Z,3052.00
2019-05-22T08:51:57.360Z,2788.00
2019-05-22T08:52:57.333Z,2772.00
2019-05-22T08:53:57.320Z,2768.00
2019-05-22T08:54:57.310Z,2684.00
2019-05-22T08:55:57.303Z,2592.00
2019-05-22T08:56:57.303Z,2708.00
2019-05-22T08:57:57.278Z,3016.00
2019-05-22T08:58:57.267Z,2924.00
2019-05-22T08:59:57.256Z,2884.00
2019-05-22T09:00:57.245Z,2796.00
2019-05-22T09:01:57.246Z,2772.00
2019-05-22T09:02:57.235Z,2884.00
2019-05-22T09:03:57.212Z,2816.00
2019-05-22T09:04:57.203Z,2688.00
2019-05-22T09:05:57.337Z,2924.00
2019-05-22T09:06:57.195Z,2912.00
2019-05-22T09:07:57.169Z,2836.00
2019-05-22T09:08:57.158Z,2708.00
2019-05-22T09:09:57.151Z,2712.00
2019-05-22T09:10:57.142Z,2616.00
2019-05-22T09:11:57.139Z,2736.00
2019-05-22T09:12:57.117Z,2748.00
2019-05-22T09:13:57.110Z,2524.00
2019-05-22T09:14:57.093Z,2336.00
2019-05-22T09:16:01.543Z,2112.00
2019-05-22T09:16:57.086Z,2140.00
2019-05-22T09:17:57.064Z,2048.00
2019-05-22T09:18:57.050Z,1820.00
2019-05-22T09:19:57.039Z,1732.00
2019-05-22T09:20:57.033Z,1620.00
2019-05-22T09:21:57.030Z,1528.00
2019-05-22T09:22:57.008Z,1524.00
2019-05-22T09:23:56.999Z,1500.00
2019-05-22T09:24:57.014Z,1536.00
2019-05-22T09:25:56.977Z,1228.00
2019-05-22T09:26:56.965Z,936.00
2019-05-22T09:27:56.968Z,808.00
2019-05-22T09:28:56.944Z,872.00
2019-05-22T09:29:56.932Z,816.00
2019-05-22T09:30:56.921Z,696.00
2019-05-22T09:31:56.913Z,740.00
2019-05-22T09:32:56.915Z,884.00
2019-05-22T09:33:56.890Z,984.00
2019-05-22T09:34:56.879Z,1152.00
2019-05-22T09:35:56.869Z,1464.00
2019-05-22T09:36:56.857Z,1492.00
2019-05-22T09:37:56.864Z,1416.00
2019-05-22T09:38:56.835Z,1372.00
2019-05-22T09:39:56.823Z,1268.00
2019-05-22T09:40:56.813Z,1180.00
2019-05-22T09:41:56.804Z,1080.00
2019-05-22T09:42:56.809Z,936.00
2019-05-22T09:43:56.784Z,852.00
2019-05-22T09:44:56.772Z,812.00
2019-05-22T09:45:56.759Z,764.00
2019-05-22T09:46:56.756Z,708.00
2019-05-22T09:47:56.752Z,684.00
2019-05-22T09:48:56.729Z,660.00
2019-05-22T09:49:56.715Z,580.00
2019-05-22T09:50:56.705Z,552.00
2019-05-22T09:51:56.696Z,552.00
2019-05-22T09:52:58.292Z,608.00
2019-05-22T09:53:56.673Z,632.00
2019-05-22T09:54:56.663Z,624.00
2019-05-22T09:55:56.651Z,712.00
2019-05-22T09:56:56.640Z,836.00
2019-05-22T09:57:56.642Z,892.00
2019-05-22T09:58:56.622Z,1000.00
2019-05-22T09:59:56.608Z,1272.00
2019-05-22T10:00:56.596Z,1256.00
2019-05-22T10:01:56.585Z,1276.00
2019-05-22T10:02:56.588Z,1372.00
2019-05-22T10:03:56.563Z,1544.00
2019-05-22T10:04:56.558Z,2048.00
2019-05-22T10:05:56.697Z,2256.00
2019-05-22T10:06:56.532Z,2172.00
2019-05-22T10:08:01.030Z,2392.00
2019-05-22T10:08:57.509Z,2392.00
2019-05-22T10:09:56.499Z,2108.00
2019-05-22T10:10:56.489Z,1636.00
2019-05-22T10:11:56.480Z,1336.00
2019-05-22T10:12:56.493Z,1184.00
2019-05-22T10:13:56.461Z,1068.00
2019-05-22T10:14:56.444Z,1092.00
2019-05-22T10:15:56.434Z,1108.00
2019-05-22T10:16:56.425Z,1204.00
2019-05-22T10:17:56.426Z,1408.00
2019-05-22T10:18:56.400Z,1608.00
2019-05-22T10:19:56.391Z,1784.00
2019-05-22T10:20:56.379Z,1868.00
2019-05-22T10:21:56.369Z,1980.00
2019-05-22T10:22:56.373Z,2092.00
2019-05-22T10:23:56.346Z,2408.00
2019-05-22T10:25:13.721Z,2068.00
2019-05-22T10:25:57.324Z,1836.00
2019-05-22T10:26:56.314Z,2000.00
2019-05-22T10:27:59.203Z,2220.00
2019-05-22T10:28:56.294Z,2820.00
2019-05-22T10:29:56.283Z,2284.00
2019-05-22T10:30:57.370Z,1788.00
2019-05-22T10:31:56.260Z,1524.00
2019-05-22T10:32:56.262Z,1284.00
2019-05-22T10:33:56.238Z,1064.00
2019-05-22T10:34:57.843Z,936.00
2019-05-22T10:35:56.218Z,892.00
2019-05-22T10:36:56.210Z,868.00
2019-05-22T10:37:56.210Z,880.00
2019-05-22T10:38:56.187Z,920.00
2019-05-22T10:39:56.176Z,956.00
2019-05-22T10:40:59.268Z,1000.00
2019-05-22T10:41:56.152Z,1028.00
2019-05-22T10:42:56.157Z,1040.00
2019-05-22T10:43:56.130Z,1036.00
2019-05-22T10:44:56.120Z,1000.00
2019-05-22T10:45:56.114Z,932.00
2019-05-22T10:46:56.098Z,892.00
2019-05-22T10:47:56.103Z,900.00
2019-05-22T10:48:56.080Z,944.00
2019-05-22T10:49:56.067Z,992.00
2019-05-22T10:50:56.058Z,988.00
2019-05-22T10:51:56.044Z,948.00
2019-05-22T10:52:56.047Z,900.00
2019-05-22T10:53:56.021Z,804.00
2019-05-22T10:54:56.206Z,720.00
2019-05-22T10:55:55.999Z,728.00
2019-05-22T10:56:55.994Z,780.00
2019-05-22T10:57:55.996Z,828.00
2019-05-22T10:58:55.968Z,896.00
2019-05-22T10:59:55.956Z,936.00
2019-05-22T11:00:55.945Z,1004.00
2019-05-22T11:01:55.934Z,1116.00
2019-05-22T11:02:55.939Z,1268.00
2019-05-22T11:03:55.914Z,1460.00
2019-05-22T11:04:55.902Z,1660.00
2019-05-22T11:06:06.358Z,1840.00
2019-05-22T11:06:56.880Z,2008.00
2019-05-22T11:07:55.884Z,2192.00
2019-05-22T11:08:55.859Z,2400.00
2019-05-22T11:09:55.849Z,2620.00
2019-05-22T11:10:55.837Z,2808.00
2019-05-22T11:11:55.835Z,2856.00
2019-05-22T11:12:55.829Z,2760.00
2019-05-22T11:14:01.290Z,2616.00
2019-05-22T11:14:56.794Z,2480.00
2019-05-22T11:15:55.789Z,2412.00
2019-05-22T11:16:55.776Z,2368.00
2019-05-22T11:17:55.794Z,2364.00
2019-05-22T11:18:55.766Z,2520.00
2019-05-22T11:19:55.741Z,2724.00
2019-05-22T11:20:55.730Z,2900.00
2019-05-22T11:21:57.101Z,3036.00
2019-05-22T11:22:55.719Z,3152.00
2019-05-22T11:23:55.712Z,3228.00
2019-05-22T11:24:55.689Z,3308.00
2019-05-22T11:25:55.677Z,3392.00
2019-05-22T11:26:55.668Z,3508.00
2019-05-22T11:27:55.658Z,3660.00
2019-05-22T11:28:55.847Z,3708.00
2019-05-22T11:29:55.662Z,3660.00
2019-05-22T11:30:55.631Z,3660.00
2019-05-22T11:31:55.617Z,3720.00
2019-05-22T11:32:55.603Z,3832.00
2019-05-22T11:33:55.610Z,3880.00
2019-05-22T11:34:55.585Z,3884.00
2019-05-22T11:35:55.577Z,3880.00
2019-05-22T11:36:55.559Z,3808.00
2019-05-22T11:37:55.548Z,3796.00
2019-05-22T11:38:55.556Z,3904.00
2019-05-22T11:39:55.527Z,4000.00
2019-05-22T11:40:55.518Z,3960.00
2019-05-22T11:41:55.512Z,3844.00
2019-05-22T11:42:55.496Z,3732.00
2019-05-22T11:43:55.500Z,3584.00
2019-05-22T11:44:55.474Z,3584.00
2019-05-22T11:45:55.474Z,3736.00
2019-05-22T11:46:55.453Z,3880.00
2019-05-22T11:47:55.445Z,4340.00
2019-05-22T11:48:55.443Z,4688.00
2019-05-22T11:49:55.423Z,4984.00
2019-05-22T11:50:55.410Z,5300.00
2019-05-22T11:51:55.398Z,5372.00
2019-05-22T11:52:55.388Z,5008.00
2019-05-22T11:54:08.899Z,4372.00
2019-05-22T11:54:56.366Z,3964.00
2019-05-22T11:55:55.357Z,4028.00
2019-05-22T11:56:55.344Z,4120.00
2019-05-22T11:57:55.335Z,3956.00
2019-05-22T11:58:55.339Z,3600.00
2019-05-22T11:59:55.313Z,3404.00
2019-05-22T12:00:55.374Z,3164.00
2019-05-22T12:01:55.291Z,2744.00
2019-05-22T12:02:55.279Z,2420.00
2019-05-22T12:03:55.289Z,2400.00
2019-05-22T12:04:55.256Z,2380.00
2019-05-22T12:05:55.245Z,2116.00
2019-05-22T12:06:55.234Z,1852.00
2019-05-22T12:07:55.223Z,1704.00
2019-05-22T12:08:55.229Z,1704.00
2019-05-22T12:09:55.203Z,1776.00
2019-05-22T12:10:55.191Z,1840.00
2019-05-22T12:11:55.179Z,2132.00
2019-05-22T12:12:55.171Z,2636.00
2019-05-22T12:13:55.170Z,3216.00
2019-05-22T12:14:55.145Z,3440.00
2019-05-22T12:15:55.133Z,3448.00
2019-05-22T12:16:55.124Z,3020.00
2019-05-22T12:17:55.115Z,2616.00
2019-05-22T12:18:58.498Z,2448.00
2019-05-22T12:19:55.093Z,1976.00
2019-05-22T12:20:55.104Z,1684.00
2019-05-22T12:21:55.075Z,1688.00
2019-05-22T12:22:55.085Z,2076.00
2019-05-22T12:23:55.062Z,2984.00
2019-05-22T12:24:55.045Z,3716.00
2019-05-22T12:25:55.026Z,4504.00
2019-05-22T12:26:55.027Z,5440.00
2019-05-22T12:27:55.010Z,6240.00
2019-05-22T12:28:55.016Z,7304.00
2019-05-22T12:29:54.985Z,7804.00
2019-05-22T12:30:54.975Z,7176.00
2019-05-22T12:31:54.963Z,6672.00
2019-05-22T12:32:54.986Z,6500.00
2019-05-22T12:33:54.960Z,6800.00
2019-05-22T12:34:54.932Z,5856.00
2019-05-22T12:35:54.930Z,4052.00